»·PEaware :: N30265 KVNY-KHND

N30265 :: KVNY-KHND

FLIGHT INFORMATION

Flight Status: Arrived
Operator: Privately registered:
United States
More flights under this callsign
Pilot: Oliver M. (5590)
Aircraft: SOCATA TBM-900
(TBM9)
More flights by this aircraft type
Origin: KVNY Van Nuys
United States
Destination: KHND Henderson
United States
More flights between these airports :: More routes between these airports
Route: +NUAL1 DAG CRESO4
File this flight plan on PilotEdge
Remarks:
Altitude:
(Current/Filed)
25,000ft
Speed:
(Current/Filed)
285kts
Departed: 26-Sep-20 01:40 PM
Arrived: 26-Sep-20 02:31 PM
Distance/Time
Traveled:
196nm/0:51
Distance/Time
To Go:
Arrived

Flight Plot

Page will automatically refresh every two minutes.

Flight plan parsing failed; only flown route is shown


Map Options




Map Legend


Flown Route
Filed Route
Departure Airport
Arrival Airport
Navaid (VOR, NDB)
Fix

Horizontal Profiles

Position Reports

Time Latitude Longitude Heading Altitude Ground
Speed
26-Sep-20 13:24 34.205961 -118.487243 271 805ft 0kts
26-Sep-20 13:25 34.205961 -118.487243 271 805ft 0kts
26-Sep-20 13:26 34.205961 -118.487243 271 805ft 0kts
26-Sep-20 13:27 34.205961 -118.487243 271 805ft 0kts
26-Sep-20 13:28 34.205961 -118.487243 271 805ft 0kts
26-Sep-20 13:29 34.205961 -118.487243 271 805ft 0kts
26-Sep-20 13:30 34.205961 -118.487243 271 805ft 0kts
26-Sep-20 13:31 34.205963 -118.487352 271 805ft 0kts
26-Sep-20 13:32 34.205963 -118.487352 271 805ft 0kts
26-Sep-20 13:33 34.205963 -118.487352 271 805ft 0kts
26-Sep-20 13:34 34.206342 -118.488138 346 805ft 9kts
26-Sep-20 13:35 34.209892 -118.488338 354 805ft 15kts
26-Sep-20 13:36 34.214601 -118.488787 357 805ft 17kts
26-Sep-20 13:37 34.218651 -118.489479 347 805ft 0kts
26-Sep-20 13:38 34.218900 -118.490387 268 805ft 11kts
26-Sep-20 13:39 34.198824 -118.489002 171 1399ft 134kts
26-Sep-20 13:40 34.170832 -118.464758 125 3304ft 134kts
26-Sep-20 13:41 34.160399 -118.422657 42 4475ft 156kts
26-Sep-20 13:42 34.202193 -118.423152 352 5897ft 157kts
26-Sep-20 13:43 34.245272 -118.430562 350 7603ft 158kts
26-Sep-20 13:44 34.289584 -118.440096 350 9057ft 179kts
26-Sep-20 13:45 34.349031 -118.453035 350 9059ft 241kts
26-Sep-20 13:46 34.406415 -118.423312 52 9084ft 255kts
26-Sep-20 13:47 34.447681 -118.357552 52 9972ft 239kts
26-Sep-20 13:48 34.488606 -118.292343 51 10519ft 243kts
26-Sep-20 13:49 34.529918 -118.226398 51 11157ft 247kts
26-Sep-20 13:50 34.570675 -118.161184 51 12146ft 238kts
26-Sep-20 13:51 34.610988 -118.096571 51 12922ft 241kts
26-Sep-20 13:52 34.635804 -118.024297 81 13756ft 242kts
26-Sep-20 13:53 34.644227 -117.946973 80 15380ft 226kts
26-Sep-20 13:54 34.652528 -117.870759 80 16835ft 230kts
26-Sep-20 13:55 34.660950 -117.792993 80 18159ft 234kts
26-Sep-20 13:56 34.676273 -117.716273 70 19410ft 235kts
26-Sep-20 13:57 34.695888 -117.639866 70 20701ft 238kts
26-Sep-20 13:58 34.715725 -117.562336 70 21992ft 242kts
26-Sep-20 13:59 34.735813 -117.483590 70 23200ft 246kts
26-Sep-20 14:00 34.756163 -117.403576 70 24264ft 250kts
26-Sep-20 14:01 34.777162 -117.320780 71 25081ft 268kts
26-Sep-20 14:02 34.800451 -117.228622 71 25064ft 297kts
26-Sep-20 14:03 34.825103 -117.130702 71 25037ft 307kts
26-Sep-20 14:04 34.850272 -117.030276 70 25017ft 311kts
26-Sep-20 14:05 34.875530 -116.929189 70 25008ft 314kts
26-Sep-20 14:06 34.901067 -116.826599 70 25009ft 318kts
26-Sep-20 14:07 34.926754 -116.722949 70 25009ft 320kts
26-Sep-20 14:08 34.952399 -116.619050 70 25009ft 320kts
26-Sep-20 14:09 34.953386 -116.511699 98 25017ft 325kts
26-Sep-20 14:10 34.958332 -116.405141 59 25020ft 318kts
26-Sep-20 14:11 35.009072 -116.317320 51 25031ft 316kts
26-Sep-20 14:12 35.060699 -116.230138 51 24980ft 318kts
26-Sep-20 14:13 35.112644 -116.142558 51 24982ft 317kts
26-Sep-20 14:14 35.164492 -116.055102 51 24987ft 317kts
26-Sep-20 14:16 35.216367 -115.967579 51 24982ft 318kts
26-Sep-20 14:17 35.268007 -115.880414 51 24823ft 312kts
26-Sep-20 14:18 35.319306 -115.794226 51 23760ft 313kts
26-Sep-20 14:19 35.369512 -115.710446 51 21990ft 296kts
26-Sep-20 14:20 35.418500 -115.630536 51 18086ft 299kts
26-Sep-20 14:21 35.468402 -115.551698 48 14030ft 295kts
26-Sep-20 14:22 35.532659 -115.491796 48 10010ft 285kts
26-Sep-20 14:23 35.583897 -115.421700 46 10017ft 273kts
26-Sep-20 14:24 35.636024 -115.351569 46 9358ft 287kts
26-Sep-20 14:25 35.690269 -115.278447 47 8361ft 288kts
26-Sep-20 14:26 35.741912 -115.208680 47 8015ft 266kts
26-Sep-20 14:27 35.797894 -115.150110 17 7345ft 274kts
26-Sep-20 14:28 35.868665 -115.136823 0 5400ft 235kts
26-Sep-20 14:28 35.914293 -115.136377 1 3698ft 164kts
26-Sep-20 14:30 35.952120 -115.135762 0 2772ft 91kts
26-Sep-20 14:31 35.970768 -115.135681 308 2443ft 5kts
26-Sep-20 14:32 35.974166 -115.136420 359 2425ft 18kts
26-Sep-20 14:32 35.977281 -115.137557 315 2410ft 9kts
26-Sep-20 14:34 35.977385 -115.137477 90 2410ft 0kts
26-Sep-20 14:35 35.977385 -115.137477 90 2410ft 0kts
26-Sep-20 14:35 35.977385 -115.137477 90 2410ft 0kts
26-Sep-20 14:36 35.977385 -115.137477 90 2410ft 0kts

Navigation Log

Ident Type
Flight plan parsing failed, navigation log unavailable